createdAt,value
2023-03-03T00:00:05.580Z,929.50
2023-03-03T00:01:05.626Z,929.54
2023-03-03T00:02:05.648Z,929.59
2023-03-03T00:03:05.701Z,929.61
2023-03-03T00:04:05.658Z,929.66
2023-03-03T00:05:05.656Z,929.68
2023-03-03T00:06:05.662Z,929.72
2023-03-03T00:07:05.676Z,929.73
2023-03-03T00:08:05.685Z,929.79
2023-03-03T00:09:05.727Z,929.86
2023-03-03T00:10:05.708Z,929.91
2023-03-03T00:11:05.731Z,930.01
2023-03-03T00:12:05.737Z,930.08
2023-03-03T00:13:05.758Z,930.09
2023-03-03T00:14:05.810Z,930.09
2023-03-03T00:15:05.778Z,930.11
2023-03-03T00:16:05.829Z,930.16
2023-03-03T00:17:05.809Z,930.16
2023-03-03T00:18:05.816Z,930.15
2023-03-03T00:19:05.837Z,930.19
2023-03-03T00:20:05.842Z,930.15
2023-03-03T00:21:05.896Z,930.18
2023-03-03T00:22:05.866Z,930.26
2023-03-03T00:23:05.886Z,930.28
2023-03-03T00:24:05.911Z,930.29
2023-03-03T00:25:05.920Z,930.31
2023-03-03T00:26:05.925Z,930.35
2023-03-03T00:27:05.947Z,930.33
2023-03-03T00:28:05.944Z,930.35
2023-03-03T00:29:05.967Z,930.31
2023-03-03T00:30:05.969Z,930.32
2023-03-03T00:31:06.010Z,930.24
2023-03-03T00:32:06.022Z,930.25
2023-03-03T00:33:06.030Z,930.28
2023-03-03T00:34:06.019Z,930.22
2023-03-03T00:35:06.048Z,930.25
2023-03-03T00:36:06.074Z,930.23
2023-03-03T00:37:06.071Z,930.21
2023-03-03T00:38:06.077Z,930.19
2023-03-03T00:39:06.097Z,930.13
2023-03-03T00:40:06.112Z,930.16
2023-03-03T00:41:06.144Z,930.17
2023-03-03T00:42:06.137Z,930.16
2023-03-03T00:43:06.154Z,930.15
2023-03-03T00:44:06.156Z,930.16
2023-03-03T00:45:06.174Z,930.15
2023-03-03T00:46:06.189Z,930.18
2023-03-03T00:47:06.209Z,930.18
2023-03-03T00:48:06.206Z,930.22
2023-03-03T00:49:06.229Z,930.20
2023-03-03T00:50:06.241Z,930.19
2023-03-03T00:51:06.267Z,930.16
2023-03-03T00:52:06.257Z,930.20
2023-03-03T00:53:06.298Z,930.18
2023-03-03T00:54:06.289Z,930.20
2023-03-03T00:55:06.314Z,930.22
2023-03-03T00:56:06.336Z,930.24
2023-03-03T00:57:06.337Z,930.24
2023-03-03T00:58:06.351Z,930.24
2023-03-03T00:59:06.356Z,930.26
2023-03-03T01:00:06.369Z,930.27
2023-03-03T01:01:06.383Z,930.28
2023-03-03T01:02:06.386Z,930.31
2023-03-03T01:03:06.416Z,930.34
2023-03-03T01:04:06.422Z,930.33
2023-03-03T01:05:06.439Z,930.34
2023-03-03T01:06:06.439Z,930.37
2023-03-03T01:07:06.481Z,930.35
2023-03-03T01:08:06.470Z,930.36
2023-03-03T01:09:06.494Z,930.35
2023-03-03T01:10:06.511Z,930.34
2023-03-03T01:11:06.512Z,930.30
2023-03-03T01:12:06.510Z,930.36
2023-03-03T01:13:06.538Z,930.34
2023-03-03T01:14:06.564Z,930.38
2023-03-03T01:15:06.569Z,930.41
2023-03-03T01:16:06.617Z,930.40
2023-03-03T01:17:06.592Z,930.39
2023-03-03T01:18:06.614Z,930.37
2023-03-03T01:19:06.620Z,930.38
2023-03-03T01:20:06.683Z,930.35
2023-03-03T01:21:06.644Z,930.35
2023-03-03T01:22:06.687Z,930.36
2023-03-03T01:23:06.665Z,930.36
2023-03-03T01:24:06.673Z,930.35
2023-03-03T01:25:06.691Z,930.35
2023-03-03T01:26:06.693Z,930.37
2023-03-03T01:27:06.735Z,930.39
2023-03-03T01:28:06.719Z,930.41
2023-03-03T01:29:06.741Z,930.37
2023-03-03T01:30:06.757Z,930.40
2023-03-03T01:31:06.807Z,930.40
2023-03-03T01:32:06.856Z,930.38
2023-03-03T01:33:06.800Z,930.41
2023-03-03T01:34:06.793Z,930.39
2023-03-03T01:35:06.817Z,930.34
2023-03-03T01:36:06.825Z,930.37
2023-03-03T01:37:06.864Z,930.36
2023-03-03T01:38:06.848Z,930.36
2023-03-03T01:39:06.871Z,930.31
2023-03-03T01:40:06.882Z,930.37
2023-03-03T01:41:06.906Z,930.36
2023-03-03T01:42:06.911Z,930.37
2023-03-03T01:43:06.926Z,930.42
2023-03-03T01:44:06.944Z,930.44
2023-03-03T01:45:06.944Z,930.44
2023-03-03T01:46:06.989Z,930.46
2023-03-03T01:47:06.978Z,930.44
2023-03-03T01:48:06.973Z,930.44
2023-03-03T01:49:07.023Z,930.44
2023-03-03T01:50:06.998Z,930.45
2023-03-03T01:51:07.021Z,930.48
2023-03-03T01:52:07.044Z,930.51
2023-03-03T01:53:07.061Z,930.51
2023-03-03T01:54:07.052Z,930.51
2023-03-03T01:55:07.094Z,930.52
2023-03-03T01:56:07.081Z,930.50
2023-03-03T01:57:07.115Z,930.53
2023-03-03T01:58:07.100Z,930.49
2023-03-03T01:59:07.127Z,930.54
2023-03-03T02:00:07.139Z,930.52
2023-03-03T02:01:07.155Z,930.53
2023-03-03T02:02:07.222Z,930.56
2023-03-03T02:03:07.247Z,930.56
2023-03-03T02:04:07.191Z,930.57
2023-03-03T02:05:07.201Z,930.59
2023-03-03T02:06:07.238Z,930.56
2023-03-03T02:07:07.224Z,930.56
2023-03-03T02:08:07.241Z,930.57
2023-03-03T02:09:07.252Z,930.53
2023-03-03T02:10:07.252Z,930.51
2023-03-03T02:11:07.286Z,930.51
2023-03-03T02:12:07.296Z,930.50
2023-03-03T02:13:07.309Z,930.48
2023-03-03T02:14:07.315Z,930.48
2023-03-03T02:15:07.333Z,930.46
2023-03-03T02:16:07.415Z,930.44
2023-03-03T02:17:07.364Z,930.42
2023-03-03T02:18:07.378Z,930.43
2023-03-03T02:19:07.382Z,930.41
2023-03-03T02:20:07.389Z,930.43
2023-03-03T02:21:07.406Z,930.42
2023-03-03T02:22:07.423Z,930.38
2023-03-03T02:23:07.458Z,930.40
2023-03-03T02:24:07.440Z,930.37
2023-03-03T02:25:07.466Z,930.37
2023-03-03T02:26:07.485Z,930.37
2023-03-03T02:27:07.487Z,930.35
2023-03-03T02:28:07.496Z,930.34
2023-03-03T02:29:07.520Z,930.30
2023-03-03T02:30:07.522Z,930.33
2023-03-03T02:31:07.594Z,930.30
2023-03-03T02:32:07.554Z,930.32
2023-03-03T02:33:07.572Z,930.32
2023-03-03T02:34:07.577Z,930.30
2023-03-03T02:35:07.589Z,930.32
2023-03-03T02:36:07.609Z,930.34
2023-03-03T02:37:07.610Z,930.38
2023-03-03T02:38:07.634Z,930.34
2023-03-03T02:39:07.646Z,930.35
2023-03-03T02:40:07.655Z,930.33
2023-03-03T02:41:07.661Z,930.33
2023-03-03T02:42:07.680Z,930.32
2023-03-03T02:43:07.688Z,930.32
2023-03-03T02:44:07.740Z,930.32
2023-03-03T02:45:07.707Z,930.36
2023-03-03T02:46:07.769Z,930.34
2023-03-03T02:47:07.735Z,930.36
2023-03-03T02:48:07.761Z,930.37
2023-03-03T02:49:07.780Z,930.34
2023-03-03T02:50:07.777Z,930.37
2023-03-03T02:51:07.806Z,930.38
2023-03-03T02:52:07.807Z,930.38
2023-03-03T02:53:07.808Z,930.37
2023-03-03T02:54:07.831Z,930.35
2023-03-03T02:55:07.839Z,930.35
2023-03-03T02:56:07.860Z,930.38
2023-03-03T02:57:07.858Z,930.32
2023-03-03T02:58:07.878Z,930.31
2023-03-03T02:59:07.878Z,930.27
2023-03-03T03:00:07.899Z,930.29
2023-03-03T03:01:08.048Z,930.26
2023-03-03T03:02:07.936Z,930.21
2023-03-03T03:03:07.943Z,930.20
2023-03-03T03:04:09.440Z,930.19
2023-03-03T03:05:07.957Z,930.18
2023-03-03T03:06:07.984Z,930.19
2023-03-03T03:07:07.997Z,930.15
2023-03-03T03:08:07.998Z,930.14
2023-03-03T03:09:08.009Z,930.13
2023-03-03T03:10:08.032Z,930.12
2023-03-03T03:11:08.038Z,930.16
2023-03-03T03:12:08.054Z,930.11
2023-03-03T03:13:08.069Z,930.12
2023-03-03T03:14:08.087Z,930.11
2023-03-03T03:15:08.109Z,930.11
2023-03-03T03:16:08.106Z,930.12
2023-03-03T03:17:08.110Z,930.10
2023-03-03T03:18:08.154Z,930.14
2023-03-03T03:19:08.143Z,930.13
2023-03-03T03:20:08.282Z,930.19
2023-03-03T03:21:08.163Z,930.14
2023-03-03T03:22:08.176Z,930.18
2023-03-03T03:23:08.184Z,930.14
2023-03-03T03:24:08.223Z,930.11
2023-03-03T03:25:08.214Z,930.13
2023-03-03T03:26:08.256Z,930.08
2023-03-03T03:27:08.233Z,930.06
2023-03-03T03:28:08.257Z,930.02
2023-03-03T03:29:08.330Z,929.98
2023-03-03T03:30:08.304Z,929.95
2023-03-03T03:31:08.332Z,929.94
2023-03-03T03:32:08.322Z,929.90
2023-03-03T03:33:08.315Z,929.88
2023-03-03T03:34:08.328Z,929.83
2023-03-03T03:35:08.333Z,929.86
2023-03-03T03:36:08.358Z,929.83
2023-03-03T03:37:08.363Z,929.84
2023-03-03T03:38:08.382Z,929.79
2023-03-03T03:39:08.380Z,929.79
2023-03-03T03:40:08.429Z,929.79
2023-03-03T03:41:08.417Z,929.78
2023-03-03T03:42:08.428Z,929.75
2023-03-03T03:43:08.437Z,929.70
2023-03-03T03:44:08.460Z,929.71
2023-03-03T03:45:08.492Z,929.69
2023-03-03T03:46:08.535Z,929.66
2023-03-03T03:47:08.484Z,929.65
2023-03-03T03:48:08.501Z,929.59
2023-03-03T03:49:08.505Z,929.61
2023-03-03T03:50:08.529Z,929.60
2023-03-03T03:51:08.530Z,929.59
2023-03-03T03:52:08.553Z,929.58
2023-03-03T03:53:08.558Z,929.57
2023-03-03T03:54:08.578Z,929.54
2023-03-03T03:55:08.583Z,929.55
2023-03-03T03:56:08.615Z,929.56
2023-03-03T03:57:08.633Z,929.55
2023-03-03T03:58:08.634Z,929.58
2023-03-03T03:59:08.634Z,929.56
2023-03-03T04:00:08.692Z,929.55
2023-03-03T04:01:08.671Z,929.54
2023-03-03T04:02:08.757Z,929.53
2023-03-03T04:03:08.909Z,929.50
2023-03-03T04:04:08.709Z,929.46
2023-03-03T04:05:08.712Z,929.46
2023-03-03T04:06:08.737Z,929.49
2023-03-03T04:07:10.702Z,929.42
2023-03-03T04:08:08.772Z,929.45
2023-03-03T04:09:08.771Z,929.45
2023-03-03T04:10:08.779Z,929.44
2023-03-03T04:11:08.807Z,929.48
2023-03-03T04:12:08.812Z,929.47
2023-03-03T04:13:08.810Z,929.45
2023-03-03T04:14:08.852Z,929.49
2023-03-03T04:15:08.835Z,929.47
2023-03-03T04:16:08.903Z,929.44
2023-03-03T04:17:08.873Z,929.44
2023-03-03T04:18:08.890Z,929.47
2023-03-03T04:19:08.889Z,929.40
2023-03-03T04:20:08.905Z,929.44
2023-03-03T04:21:08.909Z,929.38
2023-03-03T04:22:08.937Z,929.39
2023-03-03T04:23:08.941Z,929.36
2023-03-03T04:24:08.963Z,929.37
2023-03-03T04:25:08.959Z,929.31
2023-03-03T04:26:09.010Z,929.26
2023-03-03T04:27:08.985Z,929.27
2023-03-03T04:28:09.007Z,929.19
2023-03-03T04:29:09.011Z,929.20
2023-03-03T04:30:09.033Z,929.19
2023-03-03T04:31:09.105Z,929.20
2023-03-03T04:32:09.164Z,929.17
2023-03-03T04:33:09.059Z,929.19
2023-03-03T04:34:09.075Z,929.17
2023-03-03T04:35:09.106Z,929.19
2023-03-03T04:36:09.101Z,929.21
2023-03-03T04:37:09.106Z,929.20
2023-03-03T04:38:09.145Z,929.18
2023-03-03T04:39:09.135Z,929.14
2023-03-03T04:40:09.174Z,929.12
2023-03-03T04:41:09.182Z,929.14
2023-03-03T04:42:09.176Z,929.12
2023-03-03T04:43:09.209Z,929.08
2023-03-03T04:44:09.202Z,929.07
2023-03-03T04:45:09.207Z,929.09
2023-03-03T04:46:09.299Z,929.08
2023-03-03T04:47:09.232Z,929.06
2023-03-03T04:48:09.250Z,929.08
2023-03-03T04:49:12.062Z,929.09
2023-03-03T04:50:09.275Z,929.07
2023-03-03T04:51:09.280Z,929.10
2023-03-03T04:52:09.307Z,929.09
2023-03-03T04:53:09.338Z,929.09
2023-03-03T04:54:09.330Z,929.05
2023-03-03T04:55:10.500Z,929.06
2023-03-03T04:56:09.353Z,929.01
2023-03-03T04:57:09.413Z,929.02
2023-03-03T04:58:09.401Z,928.99
2023-03-03T04:59:09.379Z,928.96
2023-03-03T05:00:09.405Z,928.93
2023-03-03T05:01:09.454Z,928.98
2023-03-03T05:02:09.432Z,928.97
2023-03-03T05:03:09.451Z,928.96
2023-03-03T05:04:09.444Z,928.95
2023-03-03T05:05:09.449Z,928.95
2023-03-03T05:06:09.476Z,928.93
2023-03-03T05:07:09.478Z,928.92
2023-03-03T05:08:09.503Z,928.88
2023-03-03T05:09:09.493Z,928.92
2023-03-03T05:10:09.516Z,928.90
2023-03-03T05:11:09.530Z,928.89
2023-03-03T05:12:09.543Z,928.88
2023-03-03T05:13:09.561Z,928.86
2023-03-03T05:14:09.576Z,928.86
2023-03-03T05:15:09.572Z,928.86
2023-03-03T05:16:09.630Z,928.82
2023-03-03T05:17:09.593Z,928.84
2023-03-03T05:18:09.623Z,928.80
2023-03-03T05:19:09.631Z,928.77
2023-03-03T05:21:09.667Z,928.72
2023-03-03T05:22:09.669Z,928.72
2023-03-03T05:23:09.672Z,928.74
2023-03-03T05:24:09.689Z,928.69
2023-03-03T05:25:09.696Z,928.71
2023-03-03T05:26:09.711Z,928.69
2023-03-03T05:27:09.721Z,928.69
2023-03-03T05:28:09.747Z,928.68
2023-03-03T05:29:09.748Z,928.61
2023-03-03T05:30:09.781Z,928.61
2023-03-03T05:31:09.784Z,928.61
2023-03-03T05:32:09.807Z,928.56
2023-03-03T05:33:09.819Z,928.60
2023-03-03T05:34:09.813Z,928.58
2023-03-03T05:35:09.819Z,928.57
2023-03-03T05:36:09.857Z,928.54
2023-03-03T05:37:09.845Z,928.58
2023-03-03T05:38:09.867Z,928.56
2023-03-03T05:39:09.872Z,928.54
2023-03-03T05:40:09.896Z,928.54
2023-03-03T05:41:09.891Z,928.54
2023-03-03T05:42:09.909Z,928.51
2023-03-03T05:43:09.921Z,928.57
2023-03-03T05:44:09.933Z,928.54
2023-03-03T05:45:09.938Z,928.54
2023-03-03T05:46:10.034Z,928.52
2023-03-03T05:47:09.968Z,928.53
2023-03-03T05:48:09.985Z,928.53
2023-03-03T05:49:09.996Z,928.51
2023-03-03T05:50:10.008Z,928.44
2023-03-03T05:51:10.035Z,928.42
2023-03-03T05:52:10.032Z,928.43
2023-03-03T05:53:10.036Z,928.40
2023-03-03T05:54:10.060Z,928.37
2023-03-03T05:55:10.083Z,928.38
2023-03-03T05:56:10.100Z,928.41
2023-03-03T05:57:10.096Z,928.40
2023-03-03T05:58:10.140Z,928.41
2023-03-03T05:59:10.112Z,928.42
2023-03-03T06:00:10.133Z,928.43
2023-03-03T06:01:10.135Z,928.42
2023-03-03T06:02:10.214Z,928.46
2023-03-03T06:03:10.226Z,928.43
2023-03-03T06:04:10.183Z,928.43
2023-03-03T06:05:10.206Z,928.43
2023-03-03T06:06:10.219Z,928.42
2023-03-03T06:07:10.212Z,928.42
2023-03-03T06:08:10.255Z,928.42
2023-03-03T06:09:10.235Z,928.41
2023-03-03T06:10:10.282Z,928.40
2023-03-03T06:11:10.261Z,928.37
2023-03-03T06:12:10.282Z,928.39
2023-03-03T06:13:10.285Z,928.38
2023-03-03T06:14:10.332Z,928.37
2023-03-03T06:15:10.362Z,928.35
2023-03-03T06:16:10.359Z,928.38
2023-03-03T06:17:10.336Z,928.36
2023-03-03T06:18:10.362Z,928.37
2023-03-03T06:19:10.359Z,928.34
2023-03-03T06:20:10.378Z,928.34
2023-03-03T06:21:11.074Z,928.35
2023-03-03T06:22:10.402Z,928.34
2023-03-03T06:23:10.404Z,928.36
2023-03-03T06:24:10.427Z,928.34
2023-03-03T06:25:10.435Z,928.36
2023-03-03T06:26:10.448Z,928.33
2023-03-03T06:27:10.460Z,928.36
2023-03-03T06:28:10.493Z,928.34
2023-03-03T06:29:10.472Z,928.36
2023-03-03T06:30:10.501Z,928.35
2023-03-03T06:31:10.503Z,928.34
2023-03-03T06:32:10.630Z,928.32
2023-03-03T06:33:10.543Z,928.33
2023-03-03T06:34:10.546Z,928.31
2023-03-03T06:35:10.557Z,928.32
2023-03-03T06:36:10.568Z,928.32
2023-03-03T06:37:10.575Z,928.35
2023-03-03T06:38:10.592Z,928.34
2023-03-03T06:39:10.608Z,928.32
2023-03-03T06:40:10.626Z,928.34
2023-03-03T06:41:10.618Z,928.32
2023-03-03T06:42:10.644Z,928.34
2023-03-03T06:43:10.643Z,928.34
2023-03-03T06:44:10.665Z,928.31
2023-03-03T06:45:10.687Z,928.32
2023-03-03T06:46:10.761Z,928.31
2023-03-03T06:47:10.690Z,928.34
2023-03-03T06:48:10.734Z,928.34
2023-03-03T06:49:10.721Z,928.38
2023-03-03T06:50:10.726Z,928.37
2023-03-03T06:51:10.746Z,928.37
2023-03-03T06:52:10.751Z,928.35
2023-03-03T06:53:10.771Z,928.37
2023-03-03T06:54:10.777Z,928.37
2023-03-03T06:55:10.797Z,928.37
2023-03-03T06:56:10.818Z,928.36
2023-03-03T06:57:10.819Z,928.35
2023-03-03T06:58:10.821Z,928.34
2023-03-03T06:59:10.865Z,928.35
2023-03-03T07:00:10.846Z,928.33
2023-03-03T07:01:10.891Z,928.32
2023-03-03T07:02:10.894Z,928.31
2023-03-03T07:03:10.891Z,928.32
2023-03-03T07:04:10.923Z,928.37
2023-03-03T07:05:10.929Z,928.35
2023-03-03T07:06:10.930Z,928.35
2023-03-03T07:07:10.949Z,928.35
2023-03-03T07:08:10.957Z,928.34
2023-03-03T07:09:10.973Z,928.32
2023-03-03T07:10:10.980Z,928.30
2023-03-03T07:11:10.998Z,928.28
2023-03-03T07:12:11.004Z,928.32
2023-03-03T07:13:11.024Z,928.32
2023-03-03T07:14:11.050Z,928.33
2023-03-03T07:15:11.054Z,928.36
2023-03-03T07:16:11.068Z,928.37
2023-03-03T07:17:11.076Z,928.36
2023-03-03T07:18:11.082Z,928.39
2023-03-03T07:19:11.119Z,928.36
2023-03-03T07:20:11.106Z,928.35
2023-03-03T07:21:11.124Z,928.43
2023-03-03T07:22:11.128Z,928.41
2023-03-03T07:23:11.150Z,928.38
2023-03-03T07:24:11.152Z,928.38
2023-03-03T07:25:11.175Z,928.41
2023-03-03T07:26:11.186Z,928.40
2023-03-03T07:27:11.231Z,928.45
2023-03-03T07:28:11.204Z,928.48
2023-03-03T07:29:11.226Z,928.46
2023-03-03T07:30:11.230Z,928.47
2023-03-03T07:31:11.304Z,928.49
2023-03-03T07:32:11.304Z,928.47
2023-03-03T07:33:11.273Z,928.52
2023-03-03T07:34:11.279Z,928.51
2023-03-03T07:35:11.350Z,928.53
2023-03-03T07:36:11.301Z,928.50
2023-03-03T07:37:11.354Z,928.59
2023-03-03T07:38:11.332Z,928.60
2023-03-03T07:39:11.354Z,928.58
2023-03-03T07:40:11.355Z,928.61
2023-03-03T07:41:11.376Z,928.60
2023-03-03T07:42:11.382Z,928.62
2023-03-03T07:43:11.398Z,928.64
2023-03-03T07:44:11.410Z,928.62
2023-03-03T07:45:11.425Z,928.63
2023-03-03T07:46:11.536Z,928.64
2023-03-03T07:47:11.450Z,928.65
2023-03-03T07:48:11.453Z,928.65
2023-03-03T07:49:11.502Z,928.67
2023-03-03T07:50:11.481Z,928.74
2023-03-03T07:51:11.501Z,928.73
2023-03-03T07:52:11.523Z,928.74
2023-03-03T07:53:11.526Z,928.73
2023-03-03T07:54:11.529Z,928.74
2023-03-03T07:55:11.576Z,928.78
2023-03-03T07:56:11.559Z,928.77
2023-03-03T07:57:11.576Z,928.80
2023-03-03T07:58:11.600Z,928.79
2023-03-03T07:59:11.601Z,928.85
2023-03-03T08:00:11.605Z,928.85
2023-03-03T08:01:11.637Z,928.90
2023-03-03T08:02:11.635Z,928.93
2023-03-03T08:03:11.655Z,928.95
2023-03-03T08:04:11.732Z,928.93
2023-03-03T08:05:11.788Z,928.94
2023-03-03T08:06:11.682Z,928.93
2023-03-03T08:07:11.701Z,928.94
2023-03-03T08:08:11.709Z,928.93
2023-03-03T08:09:11.731Z,928.94
2023-03-03T08:10:11.771Z,928.97
2023-03-03T08:11:11.752Z,928.97
2023-03-03T08:12:11.753Z,928.95
2023-03-03T08:13:11.785Z,929.01
2023-03-03T08:14:11.776Z,929.03
2023-03-03T08:15:11.816Z,929.02
2023-03-03T08:16:11.865Z,929.01
2023-03-03T08:17:11.814Z,929.03
2023-03-03T08:18:11.821Z,929.01
2023-03-03T08:19:11.846Z,928.98
2023-03-03T08:20:11.843Z,928.98
2023-03-03T08:21:11.867Z,929.00
2023-03-03T08:22:11.869Z,928.98
2023-03-03T08:23:11.885Z,928.95
2023-03-03T08:24:11.902Z,928.96
2023-03-03T08:25:11.913Z,928.95
2023-03-03T08:26:11.918Z,928.94
2023-03-03T08:27:11.933Z,928.93
2023-03-03T08:28:11.967Z,928.93
2023-03-03T08:29:11.974Z,928.91
2023-03-03T08:30:11.966Z,928.93
2023-03-03T08:31:22.281Z,928.92
2023-03-03T08:32:12.076Z,928.94
2023-03-03T08:33:12.038Z,928.93
2023-03-03T08:34:12.017Z,928.95
2023-03-03T08:35:12.039Z,928.92
2023-03-03T08:36:12.041Z,928.96
2023-03-03T08:37:12.062Z,928.96
2023-03-03T08:38:12.064Z,928.96
2023-03-03T08:39:12.086Z,928.94
2023-03-03T08:40:12.089Z,928.95
2023-03-03T08:41:12.112Z,928.92
2023-03-03T08:42:12.693Z,928.94
2023-03-03T08:43:12.143Z,928.93
2023-03-03T08:44:12.142Z,928.90
2023-03-03T08:45:12.172Z,928.92
2023-03-03T08:46:12.193Z,928.91
2023-03-03T08:47:12.188Z,928.87
2023-03-03T08:48:12.193Z,928.86
2023-03-03T08:49:12.212Z,928.88
2023-03-03T08:50:12.221Z,928.88
2023-03-03T08:51:12.242Z,928.89
2023-03-03T08:52:12.248Z,928.89
2023-03-03T08:53:12.270Z,928.86
2023-03-03T08:54:12.276Z,928.89
2023-03-03T08:55:12.297Z,928.90
2023-03-03T08:56:12.303Z,928.91
2023-03-03T08:57:12.334Z,928.89
2023-03-03T08:58:12.325Z,928.91
2023-03-03T08:59:12.334Z,928.91
2023-03-03T09:00:12.374Z,928.92
2023-03-03T09:01:12.367Z,928.92
2023-03-03T09:02:12.425Z,928.93
2023-03-03T09:03:12.398Z,928.92
2023-03-03T09:04:12.440Z,928.95
2023-03-03T09:05:12.445Z,928.97
2023-03-03T09:06:12.422Z,928.97
2023-03-03T09:07:12.453Z,928.96
2023-03-03T09:08:12.487Z,928.98
2023-03-03T09:09:12.474Z,928.98
2023-03-03T09:10:12.470Z,928.97
2023-03-03T09:11:12.489Z,928.98
2023-03-03T09:12:12.502Z,928.96
2023-03-03T09:13:12.528Z,928.96
2023-03-03T09:14:12.524Z,928.99
2023-03-03T09:15:12.544Z,928.95
2023-03-03T09:16:12.579Z,929.05
2023-03-03T09:17:12.622Z,929.03
2023-03-03T09:18:12.574Z,929.02
2023-03-03T09:19:12.592Z,929.09
2023-03-03T09:20:12.621Z,929.05
2023-03-03T09:21:12.621Z,929.04
2023-03-03T09:22:12.630Z,929.04
2023-03-03T09:23:12.645Z,929.01
2023-03-03T09:24:12.650Z,929.02
2023-03-03T09:25:12.669Z,929.06
2023-03-03T09:26:12.693Z,929.06
2023-03-03T09:27:12.702Z,929.08
2023-03-03T09:28:12.697Z,929.08
2023-03-03T09:29:12.719Z,929.08
2023-03-03T09:30:12.724Z,929.07
2023-03-03T09:31:12.778Z,929.11
2023-03-03T09:32:12.817Z,929.10
2023-03-03T09:33:12.777Z,929.13
2023-03-03T09:34:12.776Z,929.10
2023-03-03T09:35:12.800Z,929.10
2023-03-03T09:36:12.809Z,929.11
2023-03-03T09:37:15.324Z,929.13
2023-03-03T09:38:12.829Z,929.12
2023-03-03T09:39:12.857Z,929.14
2023-03-03T09:40:12.861Z,929.15
2023-03-03T09:41:12.871Z,929.12
2023-03-03T09:42:12.884Z,929.11
2023-03-03T09:43:12.906Z,929.14
2023-03-03T09:44:12.908Z,929.20
2023-03-03T09:45:12.944Z,929.18
2023-03-03T09:46:12.956Z,929.22
2023-03-03T09:47:12.964Z,929.22
2023-03-03T09:48:12.973Z,929.24
2023-03-03T09:49:12.999Z,929.23
2023-03-03T09:50:13.002Z,929.22
2023-03-03T09:51:13.029Z,929.26
2023-03-03T09:52:13.052Z,929.23
2023-03-03T09:53:13.060Z,929.27
2023-03-03T09:54:13.074Z,929.31
2023-03-03T09:55:13.090Z,929.32
2023-03-03T09:56:13.094Z,929.36
2023-03-03T09:57:13.130Z,929.39
2023-03-03T09:58:13.134Z,929.40
2023-03-03T09:59:13.156Z,929.46
2023-03-03T10:00:13.164Z,929.46
2023-03-03T10:01:13.190Z,929.47
2023-03-03T10:02:13.202Z,929.46
2023-03-03T10:03:13.307Z,929.50
2023-03-03T10:04:13.318Z,929.49
2023-03-03T10:05:14.529Z,929.49
2023-03-03T10:06:13.265Z,929.53
2023-03-03T10:07:13.291Z,929.52
2023-03-03T10:08:13.295Z,929.53
2023-03-03T10:09:13.327Z,929.53
2023-03-03T10:10:13.334Z,929.52
2023-03-03T10:11:13.362Z,929.49
2023-03-03T10:12:13.389Z,929.51
2023-03-03T10:13:13.393Z,929.54
2023-03-03T10:14:13.409Z,929.57
2023-03-03T10:15:13.429Z,929.55
2023-03-03T10:16:13.515Z,929.55
2023-03-03T10:17:13.491Z,929.57
2023-03-03T10:18:13.472Z,929.57
2023-03-03T10:19:13.497Z,929.58
2023-03-03T10:20:13.513Z,929.57
2023-03-03T10:21:13.535Z,929.56
2023-03-03T10:22:13.542Z,929.58
2023-03-03T10:23:13.570Z,929.59
2023-03-03T10:24:13.584Z,929.61
2023-03-03T10:25:13.619Z,929.57
2023-03-03T10:26:13.613Z,929.61
2023-03-03T10:27:14.441Z,929.64
2023-03-03T10:28:13.666Z,929.67
2023-03-03T10:29:13.704Z,929.70
2023-03-03T10:30:13.697Z,929.68
2023-03-03T10:31:17.377Z,929.70
2023-03-03T10:32:14.536Z,929.75
2023-03-03T10:33:14.021Z,929.71
2023-03-03T10:34:14.264Z,929.76
2023-03-03T10:35:14.144Z,929.76
2023-03-03T10:36:13.831Z,929.77
2023-03-03T10:37:13.843Z,929.78
2023-03-03T10:38:13.850Z,929.76
2023-03-03T10:39:13.878Z,929.78
2023-03-03T10:40:13.887Z,929.79
2023-03-03T10:41:13.915Z,929.79
2023-03-03T10:42:13.933Z,929.81
2023-03-03T10:43:22.643Z,929.81
2023-03-03T10:44:13.972Z,929.86
2023-03-03T10:45:13.999Z,929.83
2023-03-03T10:46:14.065Z,929.80
2023-03-03T10:47:14.037Z,929.83
2023-03-03T10:48:14.055Z,929.84
2023-03-03T10:49:14.094Z,929.83
2023-03-03T10:50:14.098Z,929.83
2023-03-03T10:51:14.131Z,929.86
2023-03-03T10:52:14.131Z,929.87
2023-03-03T10:53:14.163Z,929.89
2023-03-03T10:54:14.178Z,929.87
2023-03-03T10:55:14.209Z,929.83
2023-03-03T10:56:14.220Z,929.87
2023-03-03T10:57:14.247Z,929.88
2023-03-03T10:58:14.268Z,929.86
2023-03-03T10:59:14.288Z,929.88
2023-03-03T11:00:14.310Z,929.89
2023-03-03T11:01:14.337Z,929.90
2023-03-03T11:02:14.353Z,929.90
2023-03-03T11:03:14.383Z,929.91
2023-03-03T11:04:14.408Z,929.94
2023-03-03T11:05:14.429Z,929.96
2023-03-03T11:06:14.450Z,929.96
2023-03-03T11:07:14.463Z,929.97
2023-03-03T11:08:14.490Z,929.99
2023-03-03T11:09:14.504Z,929.98
2023-03-03T11:10:14.538Z,929.99
2023-03-03T11:11:14.548Z,929.99
2023-03-03T11:12:14.579Z,929.98
2023-03-03T11:13:14.588Z,929.98
2023-03-03T11:14:14.632Z,929.99
2023-03-03T11:15:14.634Z,929.96
2023-03-03T11:16:14.726Z,929.95
2023-03-03T11:17:14.682Z,929.95
2023-03-03T11:18:14.720Z,929.95
2023-03-03T11:19:14.721Z,929.97
2023-03-03T11:20:14.764Z,929.95
2023-03-03T11:21:14.771Z,929.92
2023-03-03T11:22:14.802Z,929.99
2023-03-03T11:23:14.817Z,929.96
2023-03-03T11:24:14.841Z,929.92
2023-03-03T11:25:14.860Z,929.93
2023-03-03T11:26:14.894Z,929.94
2023-03-03T11:27:14.907Z,929.93
2023-03-03T11:28:14.941Z,929.92
2023-03-03T11:29:14.944Z,929.95
2023-03-03T11:30:14.984Z,929.96
2023-03-03T11:31:15.046Z,929.99
2023-03-03T11:32:15.052Z,929.98
2023-03-03T11:33:15.059Z,929.97
2023-03-03T11:34:15.068Z,929.98
2023-03-03T11:35:15.092Z,929.99
2023-03-03T11:36:15.118Z,930.01
2023-03-03T11:37:15.135Z,929.98
2023-03-03T11:38:15.158Z,929.99
2023-03-03T11:39:15.174Z,929.96
2023-03-03T11:40:15.205Z,929.97
2023-03-03T11:41:15.241Z,929.99
2023-03-03T11:42:15.253Z,929.96
2023-03-03T11:43:26.269Z,929.98
2023-03-03T11:44:15.306Z,929.95
2023-03-03T11:45:15.312Z,929.95
2023-03-03T11:46:15.424Z,929.95
2023-03-03T11:47:15.358Z,930.00
2023-03-03T11:48:15.413Z,930.03
2023-03-03T11:49:15.409Z,930.05
2023-03-03T11:50:15.446Z,930.08
2023-03-03T11:51:15.453Z,930.09
2023-03-03T11:52:15.491Z,930.07
2023-03-03T11:53:15.524Z,930.16
2023-03-03T11:54:15.539Z,930.18
2023-03-03T11:55:15.549Z,930.21
2023-03-03T11:56:15.586Z,930.23
2023-03-03T11:57:15.593Z,930.23
2023-03-03T11:58:15.624Z,930.26
2023-03-03T11:59:15.642Z,930.30
2023-03-03T12:00:15.670Z,930.28
2023-03-03T12:01:15.688Z,930.29
2023-03-03T12:02:15.736Z,930.27
2023-03-03T12:03:15.761Z,930.26
2023-03-03T12:04:15.772Z,930.29
2023-03-03T12:05:15.808Z,930.26
2023-03-03T12:06:15.860Z,930.30
2023-03-03T12:07:19.949Z,930.33
2023-03-03T12:08:15.923Z,930.30
2023-03-03T12:09:15.877Z,930.33
2023-03-03T12:10:15.905Z,930.29
2023-03-03T12:11:15.924Z,930.35
2023-03-03T12:12:15.963Z,930.34
2023-03-03T12:13:15.974Z,930.34
2023-03-03T12:14:16.007Z,930.30
2023-03-03T12:15:16.029Z,930.33
2023-03-03T12:16:16.130Z,930.40
2023-03-03T12:17:16.071Z,930.39
2023-03-03T12:18:16.103Z,930.38
2023-03-03T12:19:16.118Z,930.39
2023-03-03T12:20:16.233Z,930.41
2023-03-03T12:21:16.168Z,930.41
2023-03-03T12:22:16.197Z,930.39
2023-03-03T12:23:16.215Z,930.41
2023-03-03T12:24:16.241Z,930.41
2023-03-03T12:25:16.262Z,930.41
2023-03-03T12:26:16.293Z,930.47
2023-03-03T12:27:16.308Z,930.47
2023-03-03T12:28:16.342Z,930.48
2023-03-03T12:29:16.359Z,930.47